createdAt,value
2018-12-14T00:00:03.621Z,21.37
2018-12-14T00:02:32.836Z,20.40
2018-12-14T00:05:03.025Z,20.33
2018-12-14T00:07:33.020Z,20.37
2018-12-14T00:10:01.026Z,19.67
2018-12-14T00:12:29.018Z,18.60
2018-12-14T00:14:57.052Z,20.40
2018-12-14T00:17:25.025Z,18.17
2018-12-14T00:19:53.019Z,18.60
2018-12-14T00:22:20.956Z,17.83
2018-12-14T00:24:48.909Z,18.17
2018-12-14T00:27:18.727Z,18.03
2018-12-14T00:29:46.992Z,18.90
2018-12-14T00:32:15.420Z,17.93
2018-12-14T00:34:43.423Z,17.07
2018-12-14T00:37:11.445Z,17.80
2018-12-14T00:39:39.434Z,17.87
2018-12-14T00:42:08.015Z,17.90
2018-12-14T00:44:36.663Z,18.70
2018-12-14T00:47:05.427Z,18.47
2018-12-14T00:49:34.662Z,17.70
2018-12-14T00:52:03.341Z,18.30
2018-12-14T00:54:31.362Z,18.87
2018-12-14T00:56:59.892Z,18.40
2018-12-14T00:59:28.722Z,19.30
2018-12-14T01:01:57.290Z,21.47
2018-12-14T01:04:25.281Z,20.77
2018-12-14T01:06:53.316Z,19.13
2018-12-14T01:09:21.280Z,18.70
2018-12-14T01:11:49.275Z,18.50
2018-12-14T01:14:17.239Z,17.53
2018-12-14T01:16:45.217Z,18.53
2018-12-14T01:19:14.352Z,17.30
2018-12-14T01:21:42.339Z,18.13
2018-12-14T01:24:10.328Z,17.30
2018-12-14T01:26:39.016Z,17.87
2018-12-14T01:29:07.677Z,17.80
2018-12-14T01:31:36.372Z,18.20
2018-12-14T01:34:04.866Z,17.90
2018-12-14T01:36:33.293Z,17.90
2018-12-14T01:39:02.058Z,19.10
2018-12-14T01:41:32.957Z,17.50
2018-12-14T01:44:01.677Z,18.40
2018-12-14T01:46:30.302Z,19.07
2018-12-14T01:48:59.032Z,17.67
2018-12-14T01:51:27.900Z,16.93
2018-12-14T01:53:56.360Z,17.07
2018-12-14T01:56:25.246Z,18.43
2018-12-14T01:58:53.931Z,16.37
2018-12-14T02:01:22.404Z,17.17
2018-12-14T02:03:50.929Z,18.13
2018-12-14T02:06:19.368Z,17.40
2018-12-14T02:08:47.851Z,17.67
2018-12-14T02:11:16.737Z,17.87
2018-12-14T02:13:45.456Z,17.37
2018-12-14T02:16:13.764Z,17.97
2018-12-14T02:18:42.624Z,18.07
2018-12-14T02:21:11.070Z,18.00
2018-12-14T02:23:39.766Z,18.43
2018-12-14T02:26:08.260Z,17.90
2018-12-14T02:28:37.760Z,17.90
2018-12-14T02:31:06.459Z,17.93
2018-12-14T02:33:35.169Z,16.90
2018-12-14T02:36:03.564Z,18.03
2018-12-14T02:38:32.295Z,17.10
2018-12-14T02:41:00.779Z,16.93
2018-12-14T02:43:29.478Z,17.33
2018-12-14T02:45:58.158Z,17.30
2018-12-14T02:48:26.645Z,18.07
2018-12-14T02:50:55.308Z,17.43
2018-12-14T02:53:23.637Z,17.70
2018-12-14T02:55:52.285Z,17.73
2018-12-14T02:58:20.767Z,17.47
2018-12-14T03:00:49.262Z,18.03
2018-12-14T03:03:17.993Z,17.70
2018-12-14T03:05:46.830Z,18.43
2018-12-14T03:08:15.276Z,18.60
2018-12-14T03:10:43.805Z,19.00
2018-12-14T03:13:12.243Z,19.37
2018-12-14T03:15:40.961Z,18.07
2018-12-14T03:18:09.864Z,19.73
2018-12-14T03:20:38.293Z,19.07
2018-12-14T03:23:09.964Z,19.53
2018-12-14T03:25:38.785Z,18.27
2018-12-14T03:28:07.419Z,17.30
2018-12-14T03:30:35.945Z,18.87
2018-12-14T03:33:04.618Z,18.73
2018-12-14T03:35:33.295Z,18.20
2018-12-14T03:38:01.636Z,17.73
2018-12-14T03:40:30.456Z,17.50
2018-12-14T03:42:59.156Z,18.07
2018-12-14T03:45:27.641Z,17.97
2018-12-14T03:47:56.300Z,19.10
2018-12-14T03:50:25.088Z,19.17
2018-12-14T03:52:53.710Z,18.60
2018-12-14T03:55:22.372Z,19.60
2018-12-14T03:57:52.000Z,19.87
2018-12-14T04:00:20.920Z,20.17
2018-12-14T04:02:49.679Z,20.87
2018-12-14T04:05:18.581Z,19.67
2018-12-14T04:07:47.020Z,19.47
2018-12-14T04:10:15.693Z,19.30
2018-12-14T04:12:44.393Z,19.30
2018-12-14T04:15:12.932Z,19.20
2018-12-14T04:17:41.766Z,19.13
2018-12-14T04:20:10.665Z,18.67
2018-12-14T04:22:39.365Z,19.50
2018-12-14T04:25:07.800Z,18.80
2018-12-14T04:27:36.532Z,18.60
2018-12-14T04:30:06.007Z,19.83
2018-12-14T04:32:34.888Z,18.93
2018-12-14T04:35:04.785Z,18.67
2018-12-14T04:37:33.508Z,18.67
2018-12-14T04:40:01.981Z,19.03
2018-12-14T04:42:30.716Z,18.73
2018-12-14T04:44:59.600Z,19.53
2018-12-14T04:47:28.264Z,19.43
2018-12-14T04:49:56.736Z,20.00
2018-12-14T04:52:25.474Z,19.87
2018-12-14T04:54:54.308Z,19.63
2018-12-14T04:57:22.927Z,18.60
2018-12-14T04:59:51.688Z,18.20
2018-12-14T05:02:20.360Z,19.47
2018-12-14T05:04:49.016Z,19.77
2018-12-14T05:07:17.608Z,19.87
2018-12-14T05:09:46.414Z,19.93
2018-12-14T05:12:15.086Z,21.23
2018-12-14T05:14:43.836Z,20.33
2018-12-14T05:17:12.489Z,19.17
2018-12-14T05:19:41.152Z,19.53
2018-12-14T05:22:09.857Z,19.37
2018-12-14T05:24:38.302Z,19.50
2018-12-14T05:27:07.201Z,21.23
2018-12-14T05:29:35.720Z,20.50
2018-12-14T05:32:04.164Z,20.37
2018-12-14T05:34:32.861Z,19.50
2018-12-14T05:37:01.776Z,19.67
2018-12-14T05:39:30.211Z,19.60
2018-12-14T05:41:58.943Z,20.23
2018-12-14T05:44:27.879Z,19.77
2018-12-14T05:46:56.469Z,20.13
2018-12-14T05:49:25.177Z,20.63
2018-12-14T05:51:53.876Z,19.73
2018-12-14T05:54:22.311Z,19.23
2018-12-14T05:56:50.834Z,20.87
2018-12-14T05:59:21.178Z,20.70
2018-12-14T06:01:49.612Z,22.47
2018-12-14T06:04:18.305Z,21.63
2018-12-14T06:06:47.350Z,22.73
2018-12-14T06:09:17.967Z,20.60
2018-12-14T06:11:47.449Z,21.03
2018-12-14T06:14:16.116Z,21.10
2018-12-14T06:16:44.799Z,20.97
2018-12-14T06:19:13.296Z,21.13
2018-12-14T06:21:41.981Z,22.70
2018-12-14T06:24:17.809Z,21.67
2018-12-14T06:26:46.314Z,21.53
2018-12-14T06:29:14.613Z,23.97
2018-12-14T06:31:51.283Z,21.37
2018-12-14T06:34:21.944Z,21.73
2018-12-14T06:36:53.408Z,22.40
2018-12-14T06:39:22.672Z,22.37
2018-12-14T06:41:58.451Z,21.70
2018-12-14T06:44:28.271Z,23.23
2018-12-14T06:46:57.357Z,22.60
2018-12-14T06:49:27.242Z,22.10
2018-12-14T06:51:55.718Z,22.43
2018-12-14T06:54:25.804Z,22.90
2018-12-14T06:56:56.104Z,23.37
2018-12-14T06:59:25.231Z,22.57
2018-12-14T07:01:53.736Z,23.80
2018-12-14T07:04:22.409Z,23.10
2018-12-14T07:06:50.872Z,23.40
2018-12-14T07:09:19.396Z,22.10
2018-12-14T07:11:48.260Z,23.07
2018-12-14T07:14:16.739Z,24.00
2018-12-14T07:16:45.466Z,23.00
2018-12-14T07:19:14.318Z,23.43
2018-12-14T07:21:42.814Z,24.67
2018-12-14T07:24:11.967Z,22.50
2018-12-14T07:26:57.528Z,22.67
2018-12-14T07:29:26.294Z,23.70
2018-12-14T07:31:55.330Z,22.07
2018-12-14T07:34:24.051Z,22.97
2018-12-14T07:36:52.556Z,25.07
2018-12-14T07:39:21.415Z,24.03
2018-12-14T07:41:50.302Z,23.53
2018-12-14T07:44:18.837Z,23.47
2018-12-14T07:46:47.496Z,22.63
2018-12-14T07:49:16.153Z,23.90
2018-12-14T07:51:44.640Z,25.73
2018-12-14T07:54:13.320Z,30.13
2018-12-14T07:56:42.028Z,47.53
2018-12-14T07:59:10.978Z,35.00
2018-12-14T08:01:39.588Z,30.33
2018-12-14T08:04:08.277Z,28.70
2018-12-14T08:06:36.774Z,25.07
2018-12-14T08:09:06.870Z,26.37
2018-12-14T08:11:35.327Z,27.43
2018-12-14T08:14:04.161Z,26.57
2018-12-14T08:16:32.860Z,26.87
2018-12-14T08:19:04.086Z,28.23
2018-12-14T08:21:33.150Z,28.03
2018-12-14T08:24:01.625Z,26.57
2018-12-14T08:26:30.123Z,25.93
2018-12-14T08:28:58.834Z,24.60
2018-12-14T08:31:27.277Z,26.37
2018-12-14T08:33:55.767Z,26.63
2018-12-14T08:36:24.266Z,25.87
2018-12-14T08:38:52.916Z,25.37
2018-12-14T08:41:21.396Z,23.57
2018-12-14T08:43:50.555Z,24.87
2018-12-14T08:46:19.172Z,24.77
2018-12-14T08:48:47.664Z,28.23
2018-12-14T08:51:16.159Z,27.80
2018-12-14T08:53:44.621Z,25.60
2018-12-14T08:56:13.118Z,28.00
2018-12-14T08:58:41.860Z,27.13
2018-12-14T09:01:10.679Z,29.27
2018-12-14T09:03:39.400Z,29.20
2018-12-14T09:06:07.929Z,28.73
2018-12-14T09:08:36.701Z,30.30
2018-12-14T09:11:05.434Z,28.00
2018-12-14T09:13:33.928Z,27.70
2018-12-14T09:16:19.617Z,26.70
2018-12-14T09:18:48.316Z,28.67
2018-12-14T09:21:16.329Z,27.63
2018-12-14T09:23:44.293Z,30.57
2018-12-14T09:26:12.837Z,32.43
2018-12-14T09:28:41.443Z,30.90
2018-12-14T09:31:09.404Z,30.10
2018-12-14T09:33:38.140Z,28.67
2018-12-14T09:36:06.640Z,28.00
2018-12-14T09:38:35.080Z,28.77
2018-12-14T09:41:03.825Z,29.00
2018-12-14T09:43:32.425Z,28.07
2018-12-14T09:46:01.195Z,27.90
2018-12-14T09:48:30.818Z,27.07
2018-12-14T09:50:59.577Z,28.20
2018-12-14T09:53:28.234Z,26.53
2018-12-14T09:55:56.753Z,26.93
2018-12-14T09:58:25.191Z,27.43
2018-12-14T10:00:53.869Z,26.17
2018-12-14T10:03:22.620Z,27.17
2018-12-14T10:05:51.260Z,26.40
2018-12-14T10:08:19.748Z,24.83
2018-12-14T10:10:48.710Z,25.60
2018-12-14T10:13:17.794Z,25.97
2018-12-14T10:15:46.617Z,24.70
2018-12-14T10:18:15.337Z,25.87
2018-12-14T10:20:44.031Z,25.40
2018-12-14T10:23:12.816Z,26.03
2018-12-14T10:25:42.328Z,26.17
2018-12-14T10:28:11.071Z,25.87
2018-12-14T10:30:39.751Z,25.73
2018-12-14T10:33:08.283Z,25.13
2018-12-14T10:35:37.111Z,25.63
2018-12-14T10:38:06.112Z,24.70
2018-12-14T10:40:40.987Z,26.17
2018-12-14T10:43:10.264Z,24.00
2018-12-14T10:45:38.620Z,25.63
2018-12-14T10:48:06.608Z,23.83
2018-12-14T10:50:39.648Z,24.60
2018-12-14T10:53:12.208Z,25.20
2018-12-14T10:55:40.571Z,23.67
2018-12-14T10:58:09.257Z,24.13
2018-12-14T11:00:43.017Z,23.73
2018-12-14T11:03:11.505Z,24.10
2018-12-14T11:05:40.209Z,24.37
2018-12-14T11:08:08.349Z,22.87
2018-12-14T11:10:36.325Z,27.57
2018-12-14T11:13:04.290Z,26.33
2018-12-14T11:15:32.306Z,24.17
2018-12-14T11:18:00.281Z,26.57
2018-12-14T11:20:28.233Z,24.60
2018-12-14T11:22:56.249Z,27.17
2018-12-14T11:25:24.308Z,24.23
2018-12-14T11:27:52.336Z,23.90
2018-12-14T11:30:28.283Z,25.83
2018-12-14T11:32:56.960Z,24.13
2018-12-14T11:35:25.433Z,23.90
2018-12-14T11:37:54.217Z,25.60
2018-12-14T11:40:23.147Z,24.33
2018-12-14T11:42:51.888Z,25.37
2018-12-14T11:46:50.072Z,28.13
2018-12-14T11:49:18.005Z,26.73
2018-12-14T11:51:45.967Z,25.57
2018-12-14T11:54:14.826Z,26.17
2018-12-14T11:56:42.913Z,24.33
2018-12-14T11:59:10.963Z,23.93
2018-12-14T12:01:39.218Z,24.93
2018-12-14T12:04:07.639Z,25.23
2018-12-14T12:06:36.623Z,24.83
2018-12-14T12:09:08.264Z,24.20
2018-12-14T12:11:37.609Z,25.93
2018-12-14T12:14:06.668Z,24.77
2018-12-14T12:16:34.678Z,25.07
2018-12-14T12:19:03.904Z,24.50
2018-12-14T12:21:32.436Z,24.97
2018-12-14T12:24:00.514Z,23.50
2018-12-14T12:26:28.539Z,24.47
2018-12-14T12:28:56.561Z,23.33
2018-12-14T12:31:24.741Z,22.97
2018-12-14T12:33:52.757Z,22.87
2018-12-14T12:36:20.773Z,22.83
2018-12-14T12:38:49.681Z,23.33
2018-12-14T12:41:18.140Z,22.67
2018-12-14T12:43:46.613Z,22.77
2018-12-14T12:46:15.044Z,23.43
2018-12-14T12:48:43.504Z,24.23
2018-12-14T12:51:11.534Z,23.70
2018-12-14T12:53:39.547Z,24.20
2018-12-14T12:56:07.865Z,24.30
2018-12-14T12:58:35.933Z,24.13
2018-12-14T13:01:04.037Z,23.07
2018-12-14T13:03:33.466Z,23.03
2018-12-14T13:06:01.558Z,23.70
2018-12-14T13:08:29.648Z,24.33
2018-12-14T13:10:57.797Z,23.00
2018-12-14T13:13:26.376Z,22.57
2018-12-14T13:15:54.672Z,23.03
2018-12-14T13:18:22.854Z,22.90
2018-12-14T13:20:50.985Z,23.07
2018-12-14T13:23:19.547Z,22.03
2018-12-14T13:25:48.197Z,21.37
2018-12-14T13:28:16.837Z,22.73
2018-12-14T13:30:45.368Z,22.27
2018-12-14T13:33:14.252Z,22.47
2018-12-14T13:35:43.207Z,22.43
2018-12-14T13:38:12.466Z,21.80
2018-12-14T13:40:41.168Z,22.03
2018-12-14T13:43:09.876Z,22.40
2018-12-14T13:45:38.289Z,21.00
2018-12-14T13:48:07.049Z,23.00
2018-12-14T13:50:35.452Z,24.27
2018-12-14T13:53:05.367Z,23.97
2018-12-14T13:55:33.483Z,23.10
2018-12-14T13:58:01.932Z,25.90
2018-12-14T14:00:30.667Z,23.87
2018-12-14T14:02:59.421Z,22.83
2018-12-14T14:05:28.135Z,23.07
2018-12-14T14:07:58.034Z,22.50
2018-12-14T14:10:27.863Z,21.30
2018-12-14T14:12:56.682Z,23.53
2018-12-14T14:15:27.644Z,22.70
2018-12-14T14:17:56.714Z,22.37
2018-12-14T14:20:25.460Z,22.83
2018-12-14T14:22:54.159Z,22.97
2018-12-14T14:25:23.090Z,21.67
2018-12-14T14:27:51.949Z,23.10
2018-12-14T14:30:20.740Z,21.20
2018-12-14T14:32:49.506Z,22.53
2018-12-14T14:35:18.214Z,22.20
2018-12-14T14:37:46.913Z,24.47
2018-12-14T14:40:15.698Z,22.70
2018-12-14T14:42:44.574Z,23.03
2018-12-14T14:45:18.301Z,22.07
2018-12-14T14:47:47.131Z,22.23
2018-12-14T14:50:19.458Z,22.40
2018-12-14T14:52:49.969Z,22.87
2018-12-14T14:55:21.837Z,22.90
2018-12-14T14:57:51.786Z,23.47
2018-12-14T15:00:20.582Z,24.53
2018-12-14T15:02:49.402Z,24.23
2018-12-14T15:05:18.964Z,23.60
2018-12-14T15:07:47.714Z,23.73
2018-12-14T15:10:16.525Z,24.10
2018-12-14T15:12:45.198Z,25.07
2018-12-14T15:15:14.972Z,22.97
2018-12-14T15:17:43.763Z,22.87
2018-12-14T15:20:14.982Z,23.93
2018-12-14T15:22:44.300Z,23.67
2018-12-14T15:25:13.104Z,23.87
2018-12-14T15:27:44.234Z,23.13
2018-12-14T15:30:14.000Z,24.70
2018-12-14T15:32:42.838Z,22.17
2018-12-14T15:35:11.670Z,25.40
2018-12-14T15:37:41.481Z,25.27
2018-12-14T15:40:12.177Z,26.47
2018-12-14T15:42:42.082Z,25.43
2018-12-14T15:45:13.248Z,24.67
2018-12-14T15:47:41.749Z,23.93
2018-12-14T15:50:11.472Z,24.67
2018-12-14T15:52:40.314Z,24.20
2018-12-14T15:55:09.155Z,24.57
2018-12-14T15:57:37.988Z,25.10
2018-12-14T16:00:07.877Z,25.43
2018-12-14T16:02:36.719Z,24.63
2018-12-14T16:05:05.841Z,26.43
2018-12-14T16:07:34.719Z,26.90
2018-12-14T16:10:03.971Z,25.30
2018-12-14T16:12:32.778Z,25.77
2018-12-14T16:15:01.653Z,24.80
2018-12-14T16:17:31.290Z,25.33
2018-12-14T16:20:00.933Z,24.57
2018-12-14T16:22:29.801Z,25.83
2018-12-14T16:24:58.758Z,28.10
2018-12-14T16:27:27.718Z,26.30
2018-12-14T16:29:57.564Z,26.20
2018-12-14T16:32:27.053Z,26.80
2018-12-14T16:34:55.868Z,26.33
2018-12-14T16:37:24.900Z,26.33
2018-12-14T16:39:55.524Z,29.37
2018-12-14T16:42:24.896Z,26.20
2018-12-14T16:44:53.710Z,24.67
2018-12-14T16:47:22.653Z,26.50
2018-12-14T16:49:51.472Z,26.40
2018-12-14T16:52:20.297Z,25.77
2018-12-14T16:54:49.212Z,27.23
2018-12-14T16:57:19.513Z,25.03
2018-12-14T16:59:48.422Z,26.50
2018-12-14T17:02:17.323Z,27.23
2018-12-14T17:04:47.157Z,25.73
2018-12-14T17:07:16.689Z,26.03
2018-12-14T17:09:45.488Z,26.03
2018-12-14T17:12:14.745Z,27.10
2018-12-14T17:14:44.520Z,26.93
2018-12-14T17:17:13.408Z,26.67
2018-12-14T17:19:42.383Z,28.10
2018-12-14T17:22:11.291Z,29.20
2018-12-14T17:24:40.636Z,27.63
2018-12-14T17:27:09.552Z,28.40
2018-12-14T17:29:38.509Z,27.60
2018-12-14T17:32:08.209Z,27.67
2018-12-14T17:34:37.060Z,28.00
2018-12-14T17:38:09.945Z,27.57
2018-12-14T17:40:41.811Z,27.73
2018-12-14T17:43:13.032Z,28.60
2018-12-14T17:45:50.455Z,27.67
2018-12-14T17:48:29.856Z,29.77
2018-12-14T17:51:12.946Z,31.57
2018-12-14T17:53:57.556Z,27.80
2018-12-14T17:56:44.191Z,29.40
2018-12-14T17:59:23.731Z,28.77
2018-12-14T18:02:05.112Z,43.27
2018-12-14T18:04:47.960Z,28.70
2018-12-14T18:09:49.799Z,27.60
2018-12-14T18:12:20.044Z,28.43
2018-12-14T18:14:48.990Z,32.03
2018-12-14T18:17:17.905Z,27.77
2018-12-14T18:19:46.749Z,35.83
2018-12-14T18:22:16.022Z,37.63
2018-12-14T18:24:44.895Z,30.13
2018-12-14T18:27:14.422Z,30.27
2018-12-14T18:29:44.352Z,32.37
2018-12-14T18:32:14.080Z,29.87
2018-12-14T18:34:44.364Z,29.13
2018-12-14T18:37:13.305Z,30.57
2018-12-14T18:39:43.321Z,29.20
2018-12-14T18:42:12.225Z,30.47
2018-12-14T18:44:42.404Z,33.67
2018-12-14T18:47:11.428Z,31.53
2018-12-14T18:49:43.644Z,29.77
2018-12-14T18:52:13.488Z,31.93
2018-12-14T18:54:43.355Z,30.87
2018-12-14T18:57:20.107Z,39.50
2018-12-14T18:59:57.922Z,28.80
2018-12-14T19:02:40.491Z,29.13
2018-12-14T19:05:20.472Z,27.87
2018-12-14T19:07:58.223Z,30.60
2018-12-14T19:10:34.728Z,30.10
2018-12-14T19:13:16.204Z,37.90
2018-12-14T19:15:59.790Z,32.90
2018-12-14T19:18:42.606Z,30.30
2018-12-14T19:21:13.711Z,28.70
2018-12-14T19:23:44.438Z,29.33
2018-12-14T19:26:13.352Z,29.07
2018-12-14T19:28:42.152Z,28.30
2018-12-14T19:31:12.255Z,29.67
2018-12-14T19:33:42.832Z,29.13
2018-12-14T19:36:14.535Z,28.30
2018-12-14T19:38:44.668Z,28.77
2018-12-14T19:41:14.603Z,31.30
2018-12-14T19:43:46.605Z,28.70
2018-12-14T19:46:16.356Z,32.63
2018-12-14T19:48:46.640Z,29.43
2018-12-14T19:51:16.806Z,29.23
2018-12-14T19:53:47.511Z,29.27
2018-12-14T19:56:19.088Z,28.13
2018-12-14T19:58:49.549Z,28.87
2018-12-14T20:01:19.854Z,30.23
2018-12-14T20:03:51.289Z,29.93
2018-12-14T20:06:21.601Z,29.10
2018-12-14T20:09:00.357Z,31.33
2018-12-14T20:11:42.134Z,29.07
2018-12-14T20:14:20.554Z,29.63
2018-12-14T20:17:00.944Z,29.07
2018-12-14T20:19:39.097Z,29.63
2018-12-14T20:22:20.474Z,37.43
2018-12-14T20:24:58.476Z,30.13
2018-12-14T20:27:39.743Z,29.17
2018-12-14T20:30:10.574Z,31.27
2018-12-14T20:32:40.837Z,31.07
2018-12-14T20:35:12.146Z,30.60
2018-12-14T20:37:42.499Z,32.20
2018-12-14T20:40:12.319Z,30.40
2018-12-14T20:42:42.154Z,33.93
2018-12-14T20:45:12.260Z,36.83
2018-12-14T20:47:43.553Z,30.87
2018-12-14T20:50:14.489Z,31.07
2018-12-14T20:52:45.469Z,31.97
2018-12-14T20:55:16.980Z,35.03
2018-12-14T20:57:46.491Z,30.23
2018-12-14T21:00:16.265Z,30.93
2018-12-14T21:02:45.776Z,30.90
2018-12-14T21:05:16.950Z,31.60
2018-12-14T21:07:46.602Z,31.57
2018-12-14T21:10:16.928Z,29.93
2018-12-14T21:12:46.636Z,31.43
2018-12-14T21:15:16.421Z,30.30
2018-12-14T21:17:46.937Z,30.83
2018-12-14T21:20:16.441Z,29.73
2018-12-14T21:22:45.839Z,29.90
2018-12-14T21:25:15.248Z,28.97
2018-12-14T21:27:45.101Z,30.70
2018-12-14T21:30:14.883Z,29.63
2018-12-14T21:32:45.971Z,29.53
2018-12-14T21:35:15.313Z,29.43
2018-12-14T21:37:45.151Z,29.77
2018-12-14T21:40:27.662Z,29.60
2018-12-14T21:43:03.233Z,32.17
2018-12-14T21:45:41.265Z,29.80
2018-12-14T21:48:14.151Z,27.97
2018-12-14T21:50:52.264Z,30.27
2018-12-14T21:53:30.964Z,31.57
2018-12-14T21:56:11.115Z,29.67
2018-12-14T21:58:49.764Z,30.93
2018-12-14T22:01:21.232Z,28.57
2018-12-14T22:03:53.780Z,28.73
2018-12-14T22:06:23.564Z,28.93
2018-12-14T22:08:54.040Z,28.37
2018-12-14T22:11:22.831Z,32.17
2018-12-14T22:13:51.644Z,30.30
2018-12-14T22:16:20.479Z,29.63
2018-12-14T22:18:49.295Z,28.10
2018-12-14T22:21:19.489Z,28.07
2018-12-14T22:23:48.984Z,29.47
2018-12-14T22:26:17.856Z,28.27
2018-12-14T22:28:47.420Z,29.73
2018-12-14T22:31:16.799Z,35.27
2018-12-14T22:33:46.155Z,27.87
2018-12-14T22:36:14.918Z,29.00
2018-12-14T22:38:43.588Z,28.13
2018-12-14T22:41:12.089Z,29.13
2018-12-14T22:43:40.770Z,28.33
2018-12-14T22:46:09.422Z,34.23
2018-12-14T22:48:37.901Z,28.67
2018-12-14T22:51:06.323Z,29.60
2018-12-14T22:53:34.424Z,30.27
2018-12-14T22:56:02.974Z,27.30
2018-12-14T22:58:31.084Z,29.73
2018-12-14T23:00:59.299Z,29.00
2018-12-14T23:03:29.600Z,30.93
2018-12-14T23:05:59.116Z,27.73
2018-12-14T23:08:27.182Z,27.17
2018-12-14T23:10:55.416Z,27.77
2018-12-14T23:13:23.581Z,27.50
2018-12-14T23:15:52.208Z,26.93
2018-12-14T23:18:21.509Z,26.77
2018-12-14T23:20:49.538Z,26.43
2018-12-14T23:23:18.171Z,27.17
2018-12-14T23:25:46.174Z,26.33
2018-12-14T23:28:15.464Z,26.57
2018-12-14T23:30:43.467Z,27.80
2018-12-14T23:33:11.500Z,26.37
2018-12-14T23:35:39.505Z,27.27
2018-12-14T23:38:07.621Z,27.23
2018-12-14T23:40:35.617Z,27.27
2018-12-14T23:43:04.671Z,27.10
2018-12-14T23:45:32.624Z,26.97
2018-12-14T23:48:00.624Z,27.20
2018-12-14T23:50:28.656Z,26.80
2018-12-14T23:52:56.671Z,27.07
2018-12-14T23:55:24.870Z,27.03
2018-12-14T23:57:52.943Z,26.50
